Terminal Aerodrome Forecast
Issued by NWS

Home | Current Version | Previous Version | Text Only | Print | Product List | Glossary Off
Versions: 1 2 3 4 5 6 7 8 9 10 11 12 13 14 15

424
FTUS45 KGGW 230308 AAB
TAFSDY
TAF AMD
KSDY 230308Z 2303/2324 11012KT P6SM VCTS SCT090CB
      TEMPO 2303/2305 VRB25G45KT TSRAGR OVC080CB
     FM230600 12009KT P6SM VCTS SCT100CB WS020/15040KT
     FM230900 16005KT P6SM VCSH SCT060
     FM231200 28009KT P6SM SCT035
     FM231500 28015G24KT P6SM SCT200=

USA.gov is the U.S. government's official web portal to all federal, state and local government web resources and services.